Time;durP1;ratioP1;P1;durP2;ratioP2;P2;SDS_P1;SDS_P2;PMS_P1;PMS_P2;Temp;Humidity;BMP_temperature;BMP_pressure;BME280_temperature;BME280_humidity;BME280_pressure;Samples;Min_cycle;Max_cycle;Signal;HPM_P1;HPM_P2
2021/05/10 00:00:02;;;;;;;28.13;5.38;;;;;;;;;;5053700;28;20381;-63
2021/05/10 00:02:27;;;;;;;27.90;5.20;;;;;;;;;;5060433;28;20040;-63
2021/05/10 00:04:53;;;;;;;26.70;4.68;;;;;;;;;;5073522;28;20028;-63
2021/05/10 00:07:18;;;;;;;28.73;5.90;;;;;;;;;;5073778;28;20043;-64
2021/05/10 00:09:44;;;;;;;28.38;6.63;;;;;;;;;;5073580;28;20039;-63
2021/05/10 00:12:09;;;;;;;26.55;5.95;;;;;;;;;;5073692;28;20070;-63
2021/05/10 00:14:42;;;;;;;31.40;6.05;;;;;;;;;;5073569;28;20035;-63
2021/05/10 00:17:08;;;;;;;33.50;5.45;;;;;;;;;;5073507;28;20068;-65
2021/05/10 00:19:33;;;;;;;26.92;5.90;;;;;;;;;;5072668;28;20393;-66
2021/05/10 00:21:58;;;;;;;33.05;6.35;;;;;;;;;;5073016;28;20093;-65
2021/05/10 00:24:23;;;;;;;27.88;5.75;;;;;;;;;;5073103;28;20040;-65
2021/05/10 00:26:49;;;;;;;46.20;6.05;;;;;;;;;;5073195;28;20033;-65
2021/05/10 00:29:17;;;;;;;31.42;6.88;;;;;;;;;;5073265;28;20055;-65
2021/05/10 00:31:43;;;;;;;29.90;5.60;;;;;;;;;;5073151;28;20089;-65
2021/05/10 00:34:08;;;;;;;31.20;5.28;;;;;;;;;;5073328;28;20024;-65
2021/05/10 00:36:33;;;;;;;22.83;4.47;;;;;;;;;;5073113;28;20028;-65
2021/05/10 00:38:59;;;;;;;28.00;5.60;;;;;;;;;;5061757;28;20598;-65
2021/05/10 00:41:24;;;;;;;30.58;5.85;;;;;;;;;;5051570;28;20053;-65
2021/05/10 00:43:49;;;;;;;25.15;5.03;;;;;;;;;;5053129;28;20483;-65
2021/05/10 00:46:15;;;;;;;32.28;5.28;;;;;;;;;;5053103;28;20037;-65
2021/05/10 00:48:40;;;;;;;27.23;4.72;;;;;;;;;;5053161;28;20599;-63
2021/05/10 00:51:05;;;;;;;34.95;6.03;;;;;;;;;;5053001;28;20099;-63
2021/05/10 00:53:30;;;;;;;33.42;4.30;;;;;;;;;;5053010;28;20363;-63
2021/05/10 00:55:56;;;;;;;25.92;5.35;;;;;;;;;;5052917;28;20060;-63
2021/05/10 00:58:21;;;;;;;22.58;3.90;;;;;;;;;;5053052;28;20044;-63
2021/05/10 01:00:47;;;;;;;22.27;4.68;;;;;;;;;;5052622;28;20072;-65
2021/05/10 01:03:12;;;;;;;32.70;5.63;;;;;;;;;;5052831;28;20051;-65
2021/05/10 01:05:37;;;;;;;25.92;4.80;;;;;;;;;;5053216;28;20071;-65
2021/05/10 01:08:03;;;;;;;30.35;4.13;;;;;;;;;;5053017;28;20461;-65
2021/05/10 01:10:29;;;;;;;26.58;3.60;;;;;;;;;;5052768;28;20108;-65
2021/05/10 01:12:54;;;;;;;25.52;4.00;;;;;;;;;;5052764;28;20099;-63
2021/05/10 01:15:21;;;;;;;17.85;4.25;;;;;;;;;;5052563;28;20366;-65
2021/05/10 01:17:48;;;;;;;23.60;3.95;;;;;;;;;;5052485;28;20470;-65
2021/05/10 01:20:15;;;;;;;24.85;4.00;;;;;;;;;;5052739;28;20021;-65
2021/05/10 01:22:44;;;;;;;26.20;4.00;;;;;;;;;;5052801;28;20037;-65
2021/05/10 01:25:11;;;;;;;25.90;3.83;;;;;;;;;;5052251;28;20135;-65
2021/05/10 01:27:36;;;;;;;23.55;4.25;;;;;;;;;;5052648;28;20021;-63
2021/05/10 01:30:06;;;;;;;33.22;4.38;;;;;;;;;;5052633;28;20462;-63
2021/05/10 01:32:31;;;;;;;26.30;4.70;;;;;;;;;;5056698;28;20033;-63
2021/05/10 01:34:56;;;;;;;27.25;4.38;;;;;;;;;;5056513;28;20377;-63
2021/05/10 01:37:22;;;;;;;43.13;5.68;;;;;;;;;;5056668;28;20029;-63
2021/05/10 01:39:47;;;;;;;31.38;5.13;;;;;;;;;;5056179;28;20061;-63
2021/05/10 01:42:12;;;;;;;25.33;5.68;;;;;;;;;;5056512;28;20425;-64
2021/05/10 01:44:37;;;;;;;19.13;3.63;;;;;;;;;;5056479;28;20502;-63
2021/05/10 01:47:03;;;;;;;28.02;5.40;;;;;;;;;;5056234;28;20033;-63
2021/05/10 01:49:28;;;;;;;30.13;3.92;;;;;;;;;;5056177;28;20025;-63
2021/05/10 01:51:53;;;;;;;30.50;5.15;;;;;;;;;;5056361;28;20112;-63
2021/05/10 01:54:19;;;;;;;24.33;4.00;;;;;;;;;;5056330;28;20029;-63
2021/05/10 01:56:44;;;;;;;23.83;5.25;;;;;;;;;;5056492;28;20135;-63
2021/05/10 01:59:10;;;;;;;20.70;5.35;;;;;;;;;;5055950;28;20033;-64
2021/05/10 02:01:35;;;;;;;21.30;5.40;;;;;;;;;;5055809;28;20060;-63
2021/05/10 02:04:00;;;;;;;21.80;5.45;;;;;;;;;;5055997;28;20033;-63
2021/05/10 02:06:26;;;;;;;24.85;4.18;;;;;;;;;;5056262;28;20060;-64
2021/05/10 02:08:51;;;;;;;34.80;5.38;;;;;;;;;;5055812;28;20075;-63
2021/05/10 02:11:16;;;;;;;22.75;4.80;;;;;;;;;;5055894;28;20059;-63
2021/05/10 02:13:42;;;;;;;34.95;5.07;;;;;;;;;;5055761;28;20044;-64
2021/05/10 02:16:07;;;;;;;30.40;6.35;;;;;;;;;;5055769;28;20044;-63
2021/05/10 02:18:34;;;;;;;45.95;5.75;;;;;;;;;;5055970;28;20032;-63
2021/05/10 02:20:59;;;;;;;30.65;5.80;;;;;;;;;;5055718;28;20075;-63
2021/05/10 02:23:28;;;;;;;30.75;4.60;;;;;;;;;;5055772;28;20502;-64
2021/05/10 02:25:55;;;;;;;29.83;4.93;;;;;;;;;;5055371;28;20527;-64
2021/05/10 02:28:23;;;;;;;31.90;6.95;;;;;;;;;;5055696;28;20116;-63
2021/05/10 02:30:49;;;;;;;27.02;5.18;;;;;;;;;;5055484;28;20029;-63
2021/05/10 02:33:16;;;;;;;30.42;6.90;;;;;;;;;;5055680;28;20104;-63
2021/05/10 02:35:42;;;;;;;30.73;4.95;;;;;;;;;;5055286;28;20033;-63
2021/05/10 02:38:08;;;;;;;34.53;5.97;;;;;;;;;;5055136;28;20044;-63
2021/05/10 02:40:33;;;;;;;28.35;5.78;;;;;;;;;;5055387;28;20516;-63
2021/05/10 02:42:58;;;;;;;29.83;6.00;;;;;;;;;;5054348;28;20131;-63
2021/05/10 02:45:24;;;;;;;33.40;5.53;;;;;;;;;;5055045;28;20028;-63
2021/05/10 02:47:49;;;;;;;29.80;4.95;;;;;;;;;;5055327;28;20473;-63
2021/05/10 02:50:17;;;;;;;31.02;4.93;;;;;;;;;;5055251;28;20033;-63
2021/05/10 02:52:42;;;;;;;18.65;4.32;;;;;;;;;;5054990;28;20462;-63
2021/05/10 02:55:08;;;;;;;26.70;4.60;;;;;;;;;;5055062;28;20071;-64
2021/05/10 02:57:34;;;;;;;17.17;3.92;;;;;;;;;;5055329;28;20063;-63
2021/05/10 02:59:59;;;;;;;32.00;4.80;;;;;;;;;;5054898;28;20032;-63
2021/05/10 03:02:24;;;;;;;26.75;4.18;;;;;;;;;;5055067;28;20056;-64
2021/05/10 03:04:50;;;;;;;25.58;3.90;;;;;;;;;;5054567;28;20040;-64
2021/05/10 03:07:15;;;;;;;29.95;5.03;;;;;;;;;;5054687;28;20418;-63
2021/05/10 03:09:40;;;;;;;22.98;4.05;;;;;;;;;;5054670;28;20036;-64
2021/05/10 03:12:06;;;;;;;20.65;3.50;;;;;;;;;;5054884;28;20033;-64
2021/05/10 03:14:31;;;;;;;19.55;3.72;;;;;;;;;;5054943;28;20032;-63
2021/05/10 03:16:56;;;;;;;17.58;3.17;;;;;;;;;;5054457;28;20021;-63
2021/05/10 03:19:22;;;;;;;28.67;4.78;;;;;;;;;;5054734;28;20029;-64
2021/05/10 03:21:47;;;;;;;26.65;4.03;;;;;;;;;;5054565;28;20056;-63
2021/05/10 03:24:13;;;;;;;32.78;3.80;;;;;;;;;;5054687;28;20029;-63
2021/05/10 03:26:39;;;;;;;30.38;4.60;;;;;;;;;;5054544;28;20067;-63
2021/05/10 03:29:05;;;;;;;22.88;3.65;;;;;;;;;;5054260;28;20116;-63
2021/05/10 03:31:31;;;;;;;24.80;4.43;;;;;;;;;;5054479;28;20025;-63
2021/05/10 03:33:57;;;;;;;28.33;4.88;;;;;;;;;;5054435;28;20040;-63
2021/05/10 03:36:22;;;;;;;24.92;3.80;;;;;;;;;;5052570;28;20025;-63
2021/05/10 03:38:47;;;;;;;31.38;5.22;;;;;;;;;;5054392;28;20450;-63
2021/05/10 03:41:12;;;;;;;26.05;4.35;;;;;;;;;;5054037;28;20083;-64
2021/05/10 03:43:38;;;;;;;28.65;4.43;;;;;;;;;;5054210;28;20041;-64
2021/05/10 03:46:03;;;;;;;20.38;3.50;;;;;;;;;;5054153;28;20355;-63
2021/05/10 03:48:28;;;;;;;18.13;2.97;;;;;;;;;;5054076;28;20029;-63
2021/05/10 03:50:54;;;;;;;14.48;4.47;;;;;;;;;;5053647;28;20029;-63
2021/05/10 03:53:19;;;;;;;22.20;3.22;;;;;;;;;;5053943;28;20134;-63
2021/05/10 03:55:45;;;;;;;25.30;3.67;;;;;;;;;;5054003;28;20074;-63
2021/05/10 03:58:10;;;;;;;32.70;3.72;;;;;;;;;;5053900;28;20166;-64
2021/05/10 04:00:36;;;;;;;26.23;3.42;;;;;;;;;;5053895;28;20454;-64
2021/05/10 04:03:02;;;;;;;24.02;3.60;;;;;;;;;;5053822;28;20063;-63
2021/05/10 04:05:56;;;;;;;24.20;4.07;;;;;;;;;;5053667;28;20029;-64
2021/05/10 04:08:45;;;;;;;24.67;4.15;;;;;;;;;;5053532;28;20461;-63
2021/05/10 04:13:45;;;;;;;20.88;3.08;;;;;;;;;;5053830;28;20021;-63
2021/05/10 04:16:11;;;;;;;22.98;3.28;;;;;;;;;;5053546;28;20381;-63
2021/05/10 04:18:36;;;;;;;20.23;3.00;;;;;;;;;;5053892;28;20093;-64
2021/05/10 04:21:01;;;;;;;21.83;3.42;;;;;;;;;;5053219;28;20039;-63
2021/05/10 04:23:27;;;;;;;27.83;3.33;;;;;;;;;;5053477;28;20068;-64
2021/05/10 04:25:53;;;;;;;22.48;3.70;;;;;;;;;;5053489;28;20045;-64
2021/05/10 04:28:23;;;;;;;19.77;2.88;;;;;;;;;;5053473;28;20051;-64
2021/05/10 04:30:49;;;;;;;19.05;2.58;;;;;;;;;;5053096;28;20461;-64
2021/05/10 04:33:14;;;;;;;25.17;3.28;;;;;;;;;;5053372;28;20031;-64
2021/05/10 04:35:39;;;;;;;19.25;3.80;;;;;;;;;;5053378;28;20036;-64
2021/05/10 04:38:09;;;;;;;27.35;6.45;;;;;;;;;;5053614;28;20017;-64
2021/05/10 04:40:35;;;;;;;20.77;3.47;;;;;;;;;;5053251;28;20041;-63
2021/05/10 04:43:00;;;;;;;21.45;2.90;;;;;;;;;;5053203;28;20154;-64
2021/05/10 04:45:26;;;;;;;24.02;3.45;;;;;;;;;;5053112;28;20539;-63
2021/05/10 04:47:51;;;;;;;19.67;3.72;;;;;;;;;;5053307;28;20469;-64
2021/05/10 04:50:16;;;;;;;22.92;4.00;;;;;;;;;;5053232;28;20037;-64
2021/05/10 04:52:42;;;;;;;19.13;2.80;;;;;;;;;;5053202;28;20032;-63
2021/05/10 04:55:08;;;;;;;17.77;2.83;;;;;;;;;;5052596;28;20025;-64
2021/05/10 04:57:33;;;;;;;19.73;2.97;;;;;;;;;;5053210;28;20065;-63
2021/05/10 04:59:58;;;;;;;20.05;3.60;;;;;;;;;;5052853;28;20060;-63
2021/05/10 05:02:24;;;;;;;22.13;3.28;;;;;;;;;;5053299;28;20025;-64
2021/05/10 05:04:49;;;;;;;26.83;4.55;;;;;;;;;;5052738;28;20033;-63
2021/05/10 05:07:15;;;;;;;20.17;3.63;;;;;;;;;;5052569;28;20059;-64
2021/05/10 05:09:40;;;;;;;16.35;2.65;;;;;;;;;;5053019;28;20451;-63
2021/05/10 05:12:05;;;;;;;18.98;2.80;;;;;;;;;;5052715;28;20495;-64
2021/05/10 05:14:31;;;;;;;9.50;2.10;;;;;;;;;;5052954;28;20117;-64
2021/05/10 05:16:56;;;;;;;15.20;2.95;;;;;;;;;;5052893;28;20046;-63
2021/05/10 05:19:22;;;;;;;14.50;2.70;;;;;;;;;;5052771;28;20408;-63
2021/05/10 05:21:47;;;;;;;18.83;3.47;;;;;;;;;;5052742;28;20029;-63
2021/05/10 05:24:12;;;;;;;17.90;3.70;;;;;;;;;;5052746;28;20071;-63
2021/05/10 05:26:37;;;;;;;21.92;3.45;;;;;;;;;;5052645;28;20746;-63
2021/05/10 05:29:03;;;;;;;17.55;3.83;;;;;;;;;;5052780;28;20025;-64
2021/05/10 05:31:29;;;;;;;18.05;2.97;;;;;;;;;;5052698;28;20438;-64
2021/05/10 05:33:54;;;;;;;19.20;3.38;;;;;;;;;;5052850;28;20036;-64
2021/05/10 05:36:19;;;;;;;25.15;3.00;;;;;;;;;;5052558;28;20021;-64
2021/05/10 05:38:45;;;;;;;24.85;3.15;;;;;;;;;;5052835;28;20030;-63
2021/05/10 05:41:12;;;;;;;22.98;3.00;;;;;;;;;;5052432;28;20061;-64
2021/05/10 05:43:37;;;;;;;16.70;3.00;;;;;;;;;;5052643;28;20040;-63
2021/05/10 05:46:04;;;;;;;14.38;2.78;;;;;;;;;;5052601;28;20029;-63
2021/05/10 05:48:29;;;;;;;19.67;2.95;;;;;;;;;;5052876;28;20043;-63
2021/05/10 05:50:54;;;;;;;18.75;3.13;;;;;;;;;;5052491;28;20024;-64
2021/05/10 05:53:20;;;;;;;19.52;2.70;;;;;;;;;;5052628;28;20029;-64
2021/05/10 05:55:45;;;;;;;18.00;2.67;;;;;;;;;;5052498;28;20032;-64
2021/05/10 05:58:12;;;;;;;19.13;4.38;;;;;;;;;;5052434;28;20024;-64
2021/05/10 06:00:38;;;;;;;17.50;2.83;;;;;;;;;;5052494;28;20036;-63
2021/05/10 06:03:03;;;;;;;11.93;2.53;;;;;;;;;;5051992;28;20389;-64
2021/05/10 06:05:28;;;;;;;16.80;2.75;;;;;;;;;;5052468;28;20025;-64
2021/05/10 06:07:54;;;;;;;19.67;3.28;;;;;;;;;;5052437;28;20433;-64
2021/05/10 06:10:22;;;;;;;25.70;4.80;;;;;;;;;;5052524;28;20037;-64
2021/05/10 06:12:52;;;;;;;16.70;2.78;;;;;;;;;;5052519;28;20429;-64
2021/05/10 06:15:18;;;;;;;21.38;3.15;;;;;;;;;;5051966;28;20372;-64
2021/05/10 06:17:43;;;;;;;18.23;2.95;;;;;;;;;;5053020;28;20393;-64
2021/05/10 06:20:09;;;;;;;18.58;2.95;;;;;;;;;;5055748;28;20024;-64
2021/05/10 06:22:38;;;;;;;22.65;4.32;;;;;;;;;;5055908;28;20032;-64
2021/05/10 06:25:06;;;;;;;16.23;2.58;;;;;;;;;;5055319;28;20074;-64
2021/05/10 06:27:31;;;;;;;16.60;2.65;;;;;;;;;;5055604;28;20021;-64
2021/05/10 06:29:56;;;;;;;20.95;2.95;;;;;;;;;;5055571;28;20054;-64
2021/05/10 06:32:21;;;;;;;17.95;3.28;;;;;;;;;;5055722;28;20083;-64
2021/05/10 06:34:47;;;;;;;17.63;4.20;;;;;;;;;;5054100;28;20052;-64
2021/05/10 06:37:18;;;;;;;20.65;2.67;;;;;;;;;;5055220;28;20021;-64
2021/05/10 06:39:44;;;;;;;14.50;2.47;;;;;;;;;;5055523;28;20048;-64
2021/05/10 06:42:09;;;;;;;20.10;2.50;;;;;;;;;;5055173;28;20115;-64
2021/05/10 06:44:34;;;;;;;17.20;3.25;;;;;;;;;;5055869;28;20052;-64
2021/05/10 06:47:00;;;;;;;13.88;2.33;;;;;;;;;;5055296;28;20039;-64
2021/05/10 06:49:25;;;;;;;18.85;3.55;;;;;;;;;;5055346;28;20370;-64
2021/05/10 06:51:50;;;;;;;14.20;2.47;;;;;;;;;;5054961;28;20108;-64
2021/05/10 06:54:16;;;;;;;15.13;2.55;;;;;;;;;;5054922;28;20037;-63
2021/05/10 06:56:41;;;;;;;21.83;4.47;;;;;;;;;;5048752;28;20016;-65
2021/05/10 06:59:06;;;;;;;11.40;2.78;;;;;;;;;;5052186;28;20646;-65
2021/05/10 07:01:32;;;;;;;23.17;2.30;;;;;;;;;;5053613;28;20082;-65
2021/05/10 07:03:57;;;;;;;18.88;4.00;;;;;;;;;;5053673;28;20028;-65
2021/05/10 07:06:22;;;;;;;17.27;2.90;;;;;;;;;;5054134;28;20049;-65
2021/05/10 07:08:47;;;;;;;18.38;3.22;;;;;;;;;;5054160;28;20040;-66
2021/05/10 07:11:13;;;;;;;10.93;1.88;;;;;;;;;;5051415;28;20029;-65
2021/05/10 07:13:38;;;;;;;18.40;3.70;;;;;;;;;;5053847;28;20492;-66
2021/05/10 07:16:03;;;;;;;19.58;2.92;;;;;;;;;;5054245;28;20116;-66
2021/05/10 07:18:29;;;;;;;18.75;2.50;;;;;;;;;;5053473;28;20078;-66
2021/05/10 07:20:54;;;;;;;16.92;2.47;;;;;;;;;;5053884;28;20045;-66
2021/05/10 07:23:20;;;;;;;9.05;1.73;;;;;;;;;;5053835;28;20037;-66
2021/05/10 07:25:47;;;;;;;12.48;1.90;;;;;;;;;;5053741;28;20039;-66
2021/05/10 07:28:13;;;;;;;11.18;1.90;;;;;;;;;;5051800;28;20074;-66
2021/05/10 07:30:39;;;;;;;11.07;2.28;;;;;;;;;;5053598;28;20489;-66
2021/05/10 07:33:04;;;;;;;11.35;2.55;;;;;;;;;;5053649;28;20032;-66
2021/05/10 07:35:30;;;;;;;18.17;2.20;;;;;;;;;;5053783;28;20025;-66
2021/05/10 07:37:55;;;;;;;9.35;1.90;;;;;;;;;;5053230;28;20041;-66
2021/05/10 07:40:23;;;;;;;10.65;1.52;;;;;;;;;;5053365;28;20059;-66
2021/05/10 07:42:49;;;;;;;12.63;2.15;;;;;;;;;;5054024;28;20514;-66
2021/05/10 07:45:14;;;;;;;10.07;1.90;;;;;;;;;;5053426;28;20056;-67
2021/05/10 07:47:40;;;;;;;9.52;2.00;;;;;;;;;;5053217;28;20024;-66
2021/05/10 07:50:06;;;;;;;10.18;1.80;;;;;;;;;;5053557;28;20450;-67
2021/05/10 07:52:31;;;;;;;11.30;1.90;;;;;;;;;;5046283;28;20389;-66
2021/05/10 07:54:56;;;;;;;8.55;1.83;;;;;;;;;;5049544;28;20017;-66
2021/05/10 07:57:22;;;;;;;9.27;2.30;;;;;;;;;;5050940;28;20021;-66
2021/05/10 07:59:49;;;;;;;16.00;2.05;;;;;;;;;;5049351;28;20123;-66
2021/05/10 08:02:14;;;;;;;10.82;2.25;;;;;;;;;;5050017;28;20029;-66
2021/05/10 08:04:41;;;;;;;12.93;2.35;;;;;;;;;;5049743;28;20399;-66
2021/05/10 08:07:07;;;;;;;8.68;1.85;;;;;;;;;;5050106;28;20095;-66
2021/05/10 08:09:32;;;;;;;13.27;2.80;;;;;;;;;;5050059;28;20047;-66
2021/05/10 08:11:58;;;;;;;11.90;2.38;;;;;;;;;;5050847;28;20025;-66
2021/05/10 08:14:23;;;;;;;12.65;2.08;;;;;;;;;;5050032;28;20033;-66
2021/05/10 08:16:49;;;;;;;7.72;1.88;;;;;;;;;;5050240;28;20093;-66
2021/05/10 08:19:14;;;;;;;10.70;2.30;;;;;;;;;;5049561;28;20024;-66
2021/05/10 08:21:40;;;;;;;11.85;2.20;;;;;;;;;;5049588;28;20025;-66
2021/05/10 08:24:06;;;;;;;12.60;1.77;;;;;;;;;;5048984;28;20482;-65
2021/05/10 08:26:31;;;;;;;13.68;2.10;;;;;;;;;;5049050;28;20028;-66
2021/05/10 08:28:56;;;;;;;10.35;1.73;;;;;;;;;;5045554;28;20166;-66
2021/05/10 08:31:22;;;;;;;7.57;1.40;;;;;;;;;;5050650;28;20039;-66
2021/05/10 08:33:48;;;;;;;7.85;1.50;;;;;;;;;;5043459;28;20154;-66
2021/05/10 08:36:15;;;;;;;10.55;2.03;;;;;;;;;;5046506;28;20072;-66
2021/05/10 08:38:41;;;;;;;8.80;1.95;;;;;;;;;;5058282;28;20074;-66
2021/05/10 08:41:07;;;;;;;10.43;2.10;;;;;;;;;;5052506;28;20048;-66
2021/05/10 08:43:33;;;;;;;8.45;1.75;;;;;;;;;;5051045;28;20072;-66
2021/05/10 08:46:00;;;;;;;8.68;1.45;;;;;;;;;;5061070;28;20063;-66
2021/05/10 08:48:26;;;;;;;10.63;1.92;;;;;;;;;;5048931;28;20028;-66
2021/05/10 08:50:52;;;;;;;7.68;1.92;;;;;;;;;;5052719;28;20044;-66
2021/05/10 08:53:39;;;;;;;6.05;1.67;;;;;;;;;;5055743;28;20171;-66
2021/05/10 08:56:05;;;;;;;6.68;1.63;;;;;;;;;;5047952;28;20170;-65
2021/05/10 08:58:37;;;;;;;5.65;1.42;;;;;;;;;;5059255;28;20508;-65
2021/05/10 09:01:03;;;;;;;5.53;1.38;;;;;;;;;;5053609;28;20025;-66
2021/05/10 09:03:32;;;;;;;5.68;1.40;;;;;;;;;;5049416;28;20102;-65
2021/05/10 09:06:01;;;;;;;7.80;1.33;;;;;;;;;;5053665;28;20080;-65
2021/05/10 09:08:26;;;;;;;10.07;2.17;;;;;;;;;;5049891;28;20037;-65
2021/05/10 09:11:08;;;;;;;7.93;1.77;;;;;;;;;;5049062;28;20036;-65
2021/05/10 09:13:34;;;;;;;12.13;1.88;;;;;;;;;;5039995;28;20033;-65
2021/05/10 09:16:00;;;;;;;10.68;1.77;;;;;;;;;;5045141;28;20037;-65
2021/05/10 09:18:26;;;;;;;6.57;1.70;;;;;;;;;;5052328;28;20044;-64
2021/05/10 09:20:51;;;;;;;8.75;1.92;;;;;;;;;;5031885;28;20079;-65
2021/05/10 09:23:17;;;;;;;9.35;1.85;;;;;;;;;;5043070;28;20412;-64
2021/05/10 09:25:44;;;;;;;9.35;2.05;;;;;;;;;;5044824;28;20556;-64
2021/05/10 09:28:16;;;;;;;9.95;1.80;;;;;;;;;;5059542;28;20048;-64
2021/05/10 09:30:43;;;;;;;12.48;2.20;;;;;;;;;;5054415;28;20032;-64
2021/05/10 09:33:22;;;;;;;11.38;1.90;;;;;;;;;;5060962;28;20039;-65
2021/05/10 09:35:48;;;;;;;8.75;2.05;;;;;;;;;;5046605;28;20029;-67
2021/05/10 09:38:13;;;;;;;14.05;2.33;;;;;;;;;;5053044;28;20758;-67
2021/05/10 09:40:49;;;;;;;11.65;2.00;;;;;;;;;;5054204;28;20084;-65
2021/05/10 09:43:18;;;;;;;10.05;1.70;;;;;;;;;;5041741;28;20468;-65
2021/05/10 09:45:48;;;;;;;9.70;1.50;;;;;;;;;;5044511;28;20371;-65
2021/05/10 09:48:15;;;;;;;6.28;1.45;;;;;;;;;;5050535;28;20016;-65
2021/05/10 09:50:42;;;;;;;10.70;1.88;;;;;;;;;;5055097;28;20394;-65
2021/05/10 09:53:10;;;;;;;8.63;1.73;;;;;;;;;;5047485;28;20040;-65
2021/05/10 09:55:51;;;;;;;7.55;1.40;;;;;;;;;;5065773;28;20426;-64
2021/05/10 09:58:18;;;;;;;5.13;1.58;;;;;;;;;;5055543;28;20055;-66
2021/05/10 10:00:43;;;;;;;9.55;1.42;;;;;;;;;;5059993;28;20148;-66
2021/05/10 10:03:25;;;;;;;9.00;1.45;;;;;;;;;;5048739;28;21121;-66
2021/05/10 10:05:57;;;;;;;6.13;1.23;;;;;;;;;;5054837;28;20492;-66
2021/05/10 10:08:23;;;;;;;8.88;1.55;;;;;;;;;;5066974;28;20036;-66
2021/05/10 10:10:49;;;;;;;9.20;1.73;;;;;;;;;;5058474;28;20090;-66
2021/05/10 10:13:15;;;;;;;12.15;1.63;;;;;;;;;;5062313;28;20027;-66
2021/05/10 10:15:41;;;;;;;10.00;1.15;;;;;;;;;;5052071;28;20029;-66
2021/05/10 10:18:07;;;;;;;13.45;1.58;;;;;;;;;;5064211;28;20033;-66
2021/05/10 10:20:33;;;;;;;12.23;1.98;;;;;;;;;;5051664;28;20066;-66
2021/05/10 10:22:58;;;;;;;12.80;2.15;;;;;;;;;;5045062;28;20040;-66
2021/05/10 10:25:24;;;;;;;15.02;2.22;;;;;;;;;;5049215;28;20432;-66
2021/05/10 10:27:50;;;;;;;8.75;1.77;;;;;;;;;;5046461;28;20023;-66
2021/05/10 10:30:16;;;;;;;8.95;1.90;;;;;;;;;;5045133;28;20029;-66
2021/05/10 10:32:42;;;;;;;9.60;1.45;;;;;;;;;;5044764;28;20078;-66
2021/05/10 10:35:09;;;;;;;9.75;1.67;;;;;;;;;;5058062;28;20021;-66
2021/05/10 10:37:34;;;;;;;11.95;1.48;;;;;;;;;;5047461;28;20451;-66
2021/05/10 10:40:03;;;;;;;14.95;1.80;;;;;;;;;;5062351;28;20045;-66
2021/05/10 10:42:30;;;;;;;13.43;2.17;;;;;;;;;;5055509;28;20571;-67
2021/05/10 10:45:03;;;;;;;12.15;1.27;;;;;;;;;;5048254;28;20040;-67
2021/05/10 10:47:44;;;;;;;8.77;1.30;;;;;;;;;;5063494;28;20159;-66
2021/05/10 10:50:10;;;;;;;9.90;1.63;;;;;;;;;;5053291;28;20492;-66
2021/05/10 10:52:47;;;;;;;8.65;2.05;;;;;;;;;;5054041;28;20023;-66
2021/05/10 10:55:13;;;;;;;9.25;1.40;;;;;;;;;;5051678;28;20037;-66
2021/05/10 10:57:39;;;;;;;6.43;1.35;;;;;;;;;;5051721;28;20159;-66
2021/05/10 11:00:04;;;;;;;7.05;1.40;;;;;;;;;;5051216;28;20120;-66
2021/05/10 11:02:38;;;;;;;9.73;1.58;;;;;;;;;;5051767;28;20405;-66
2021/05/10 11:05:11;;;;;;;11.07;2.00;;;;;;;;;;5051575;28;20114;-66
2021/05/10 11:07:46;;;;;;;7.63;2.33;;;;;;;;;;5050097;28;20029;-66
2021/05/10 11:10:11;;;;;;;13.27;3.08;;;;;;;;;;5037004;28;20031;-66
2021/05/10 11:12:47;;;;;;;12.00;2.00;;;;;;;;;;5046277;28;20041;-66
2021/05/10 11:15:12;;;;;;;;;;;;;;;;;;5051445;28;20020;-66
2021/05/10 11:17:53;;;;;;;9.75;1.73;;;;;;;;;;5056700;28;20433;-66
2021/05/10 11:20:18;;;;;;;11.27;1.27;;;;;;;;;;5052808;28;20041;-66
2021/05/10 11:22:47;;;;;;;7.18;1.70;;;;;;;;;;5063640;28;20051;-66
2021/05/10 11:25:31;;;;;;;6.18;1.60;;;;;;;;;;5051296;28;20404;-66
2021/05/10 11:27:56;;;;;;;14.27;1.88;;;;;;;;;;5055020;28;20446;-66
2021/05/10 11:30:40;;;;;;;10.75;1.42;;;;;;;;;;5046824;28;20048;-66
2021/05/10 11:33:05;;;;;;;10.68;1.20;;;;;;;;;;5036421;28;20028;-66
2021/05/10 11:35:30;;;;;;;8.85;1.50;;;;;;;;;;5058233;28;20040;-67
2021/05/10 11:38:00;;;;;;;13.45;2.00;;;;;;;;;;5058458;28;20107;-66
2021/05/10 11:40:25;;;;;;;7.90;1.88;;;;;;;;;;5050890;28;20045;-66
2021/05/10 11:42:52;;;;;;;8.65;1.65;;;;;;;;;;5049161;28;20051;-67
2021/05/10 11:45:17;;;;;;;5.68;1.80;;;;;;;;;;5060165;28;20067;-66
2021/05/10 11:47:46;;;;;;;7.57;1.50;;;;;;;;;;5056294;28;20498;-66
2021/05/10 11:50:11;;;;;;;12.10;1.85;;;;;;;;;;5054202;28;20667;-66
2021/05/10 11:52:37;;;;;;;8.13;1.30;;;;;;;;;;5040020;28;20102;-66
2021/05/10 11:55:03;;;;;;;11.48;1.52;;;;;;;;;;5046773;28;20044;-66
2021/05/10 11:57:31;;;;;;;8.40;1.00;;;;;;;;;;5053366;28;20103;-66
2021/05/10 12:00:14;;;;;;;10.50;1.85;;;;;;;;;;5055207;28;20032;-66
2021/05/10 12:02:41;;;;;;;9.48;1.60;;;;;;;;;;5060851;28;20110;-66
2021/05/10 12:05:11;;;;;;;6.32;1.30;;;;;;;;;;5047167;28;20433;-66
2021/05/10 12:07:37;;;;;;;6.45;0.98;;;;;;;;;;5054682;28;20492;-66
2021/05/10 12:10:13;;;;;;;7.95;1.45;;;;;;;;;;5047989;28;20048;-66
2021/05/10 12:12:38;;;;;;;;;;;;;;;;;;5063365;28;20036;-66
2021/05/10 12:15:07;;;;;;;6.72;1.70;;;;;;;;;;5050911;28;19908;-66
2021/05/10 12:17:33;;;;;;;9.65;1.40;;;;;;;;;;5059570;28;20109;-66
2021/05/10 12:20:08;;;;;;;5.93;1.30;;;;;;;;;;5054484;28;20033;-66
2021/05/10 12:22:44;;;;;;;9.18;1.17;;;;;;;;;;5062360;28;20044;-66
2021/05/10 12:25:29;;;;;;;5.88;1.17;;;;;;;;;;5051562;28;20089;-66
2021/05/10 12:27:56;;;;;;;10.77;1.67;;;;;;;;;;5054833;28;20021;-66
2021/05/10 12:30:25;;;;;;;4.80;0.98;;;;;;;;;;5061456;28;20131;-66
2021/05/10 12:32:52;;;;;;;7.78;1.70;;;;;;;;;;5048818;28;20020;-66
2021/05/10 12:35:20;;;;;;;5.13;1.15;;;;;;;;;;5059796;28;20091;-66
2021/05/10 12:37:49;;;;;;;8.98;1.30;;;;;;;;;;5055328;28;20500;-66
2021/05/10 12:40:17;;;;;;;9.70;2.30;;;;;;;;;;5051306;28;20045;-66
2021/05/10 12:42:42;;;;;;;5.88;1.52;;;;;;;;;;5062497;28;20380;-66
2021/05/10 12:45:10;;;;;;;6.80;1.48;;;;;;;;;;5051508;28;20055;-66
2021/05/10 12:47:56;;;;;;;9.75;1.80;;;;;;;;;;5057135;28;20028;-66
2021/05/10 12:50:31;;;;;;;7.90;2.17;;;;;;;;;;5053096;28;20037;-66
2021/05/10 12:52:56;;;;;;;6.05;1.30;;;;;;;;;;5061513;28;20441;-66
2021/05/10 12:55:22;;;;;;;8.55;1.55;;;;;;;;;;5053381;28;20029;-66
2021/05/10 12:57:48;;;;;;;7.30;1.50;;;;;;;;;;5054611;28;20469;-66
2021/05/10 13:00:25;;;;;;;7.05;1.90;;;;;;;;;;5058721;28;20107;-66
2021/05/10 13:02:51;;;;;;;13.10;2.42;;;;;;;;;;5062282;28;20048;-67
2021/05/10 13:05:35;;;;;;;7.00;1.90;;;;;;;;;;5046368;28;20048;-66
2021/05/10 13:08:02;;;;;;;25.00;2.70;;;;;;;;;;5057185;28;20479;-66
2021/05/10 13:10:27;;;;;;;6.50;1.65;;;;;;;;;;5049859;28;20037;-66
2021/05/10 13:12:53;;;;;;;10.32;1.80;;;;;;;;;;5050319;28;20401;-66
2021/05/10 13:15:30;;;;;;;8.70;2.03;;;;;;;;;;5052824;28;20466;-66
2021/05/10 13:18:02;;;;;;;12.13;2.30;;;;;;;;;;5054152;28;20044;-67
2021/05/10 13:20:53;;;;;;;11.50;1.95;;;;;;;;;;5024310;28;20029;-66
2021/05/10 13:36:48;;;;;;;11.43;1.65;;;;;;;;;;5058044;28;20033;-66
2021/05/10 13:39:14;;;;;;;8.73;1.55;;;;;;;;;;5054617;28;20116;-66
2021/05/10 13:41:48;;;;;;;10.27;1.88;;;;;;;;;;5063222;28;20460;-66
2021/05/10 13:44:14;;;;;;;12.68;1.90;;;;;;;;;;5055263;28;20082;-66
2021/05/10 13:46:41;;;;;;;9.18;2.33;;;;;;;;;;5065498;28;20082;-66
2021/05/10 13:49:06;;;;;;;10.48;2.15;;;;;;;;;;5048640;28;21138;-66
2021/05/10 13:51:32;;;;;;;9.73;1.98;;;;;;;;;;5056444;28;20024;-66
2021/05/10 13:53:59;;;;;;;10.93;1.77;;;;;;;;;;5053302;28;20556;-66
2021/05/10 13:56:24;;;;;;;8.60;1.80;;;;;;;;;;5061346;28;20017;-66
2021/05/10 13:58:50;;;;;;;7.95;1.50;;;;;;;;;;5051149;28;20087;-66
2021/05/10 14:01:16;;;;;;;15.75;2.03;;;;;;;;;;5054836;28;20029;-66
2021/05/10 14:03:41;;;;;;;14.30;1.75;;;;;;;;;;5055761;28;20072;-66
2021/05/10 14:06:07;;;;;;;10.57;1.65;;;;;;;;;;5061503;28;20029;-66
2021/05/10 14:08:33;;;;;;;10.00;1.48;;;;;;;;;;5051175;28;20040;-66
2021/05/10 14:10:59;;;;;;;9.55;2.25;;;;;;;;;;5048205;28;20047;-66
2021/05/10 14:13:25;;;;;;;11.75;1.85;;;;;;;;;;5046990;28;20466;-66
2021/05/10 14:15:50;;;;;;;15.38;2.58;;;;;;;;;;5059201;28;20036;-66
2021/05/10 14:18:17;;;;;;;12.25;3.08;;;;;;;;;;5054964;28;20808;-66
2021/05/10 14:23:27;;;;;;;15.82;2.95;;;;;;;;;;5056075;28;20114;-67
2021/05/10 14:25:52;;;;;;;7.97;2.20;;;;;;;;;;5057840;28;20910;-66
2021/05/10 14:28:17;;;;;;;10.10;2.00;;;;;;;;;;5063469;28;20071;-66
2021/05/10 14:30:43;;;;;;;6.85;2.22;;;;;;;;;;5051038;28;20600;-66
2021/05/10 14:33:08;;;;;;;7.30;1.75;;;;;;;;;;5050673;28;20025;-66
2021/05/10 14:35:33;;;;;;;5.68;1.55;;;;;;;;;;5045922;28;20047;-66
2021/05/10 14:37:59;;;;;;;13.10;2.47;;;;;;;;;;5051905;28;20060;-66
2021/05/10 14:40:24;;;;;;;21.60;2.83;;;;;;;;;;5057930;28;20049;-66
2021/05/10 14:42:49;;;;;;;13.90;2.17;;;;;;;;;;5063707;28;20473;-66
2021/05/10 14:45:14;;;;;;;14.90;3.20;;;;;;;;;;5054273;28;20380;-66
2021/05/10 14:47:40;;;;;;;14.23;2.72;;;;;;;;;;5058986;28;20025;-66
2021/05/10 14:50:05;;;;;;;12.07;2.00;;;;;;;;;;5060643;28;20040;-66